sensor_id;sensor_type;location;lat;lon;timestamp;pressure;altitude;pressure_sealevel;temperature
68127;BMP180;54931;52.098;21.006;2022-10-17T00:00:56;101176.00;;;13.00
68127;BMP180;54931;52.098;21.006;2022-10-17T00:03:31;101182.80;;;13.02
68127;BMP180;54931;52.098;21.006;2022-10-17T00:05:58;101188.00;;;13.00
68127;BMP180;54931;52.098;21.006;2022-10-17T00:08:30;101194.60;;;12.90
68127;BMP180;54931;52.098;21.006;2022-10-17T00:10:59;101190.40;;;12.84
68127;BMP180;54931;52.098;21.006;2022-10-17T00:13:27;101187.80;;;12.70
68127;BMP180;54931;52.098;21.006;2022-10-17T00:15:54;101191.60;;;12.60
68127;BMP180;54931;52.098;21.006;2022-10-17T00:18:21;101194.20;;;12.60
68127;BMP180;54931;52.098;21.006;2022-10-17T00:20:48;101190.20;;;12.60
68127;BMP180;54931;52.098;21.006;2022-10-17T00:23:15;101187.40;;;12.60
68127;BMP180;54931;52.098;21.006;2022-10-17T00:25:42;101189.80;;;12.60
68127;BMP180;54931;52.098;21.006;2022-10-17T00:28:13;101185.00;;;12.62
68127;BMP180;54931;52.098;21.006;2022-10-17T00:30:41;101180.80;;;12.62
68127;BMP180;54931;52.098;21.006;2022-10-17T00:33:08;101173.40;;;12.70
68127;BMP180;54931;52.098;21.006;2022-10-17T00:35:34;101172.20;;;12.70
68127;BMP180;54931;52.098;21.006;2022-10-17T00:38:01;101173.20;;;12.60
68127;BMP180;54931;52.098;21.006;2022-10-17T00:40:28;101174.40;;;12.60
68127;BMP180;54931;52.098;21.006;2022-10-17T00:42:55;101179.60;;;12.60
68127;BMP180;54931;52.098;21.006;2022-10-17T00:45:27;101179.20;;;12.60
68127;BMP180;54931;52.098;21.006;2022-10-17T00:48:03;101181.60;;;12.60
68127;BMP180;54931;52.098;21.006;2022-10-17T00:50:31;101182.20;;;12.70
68127;BMP180;54931;52.098;21.006;2022-10-17T00:53:00;101186.40;;;12.70
68127;BMP180;54931;52.098;21.006;2022-10-17T00:55:32;101192.80;;;12.70
68127;BMP180;54931;52.098;21.006;2022-10-17T00:58:02;101194.40;;;12.70
68127;BMP180;54931;52.098;21.006;2022-10-17T01:00:30;101193.80;;;12.60
68127;BMP180;54931;52.098;21.006;2022-10-17T01:02:58;101199.00;;;12.50
68127;BMP180;54931;52.098;21.006;2022-10-17T01:05:25;101202.60;;;12.40
68127;BMP180;54931;52.098;21.006;2022-10-17T01:07:52;101192.60;;;12.40
68127;BMP180;54931;52.098;21.006;2022-10-17T01:13:13;101197.00;;;12.40
68127;BMP180;54931;52.098;21.006;2022-10-17T01:18:50;101199.60;;;12.50
68127;BMP180;54931;52.098;21.006;2022-10-17T01:21:33;101202.80;;;12.60
68127;BMP180;54931;52.098;21.006;2022-10-17T01:24:39;101202.20;;;12.70
68127;BMP180;54931;52.098;21.006;2022-10-17T01:33:04;101209.60;;;13.10
68127;BMP180;54931;52.098;21.006;2022-10-17T01:38:15;101208.00;;;13.10
68127;BMP180;54931;52.098;21.006;2022-10-17T01:40:50;101200.20;;;13.08
68127;BMP180;54931;52.098;21.006;2022-10-17T01:43:32;101189.00;;;13.06
68127;BMP180;54931;52.098;21.006;2022-10-17T01:46:03;101192.40;;;13.08
68127;BMP180;54931;52.098;21.006;2022-10-17T01:48:36;101199.20;;;13.10
68127;BMP180;54931;52.098;21.006;2022-10-17T01:51:20;101199.80;;;13.10
68127;BMP180;54931;52.098;21.006;2022-10-17T01:53:55;101192.40;;;13.20
68127;BMP180;54931;52.098;21.006;2022-10-17T01:56:25;101184.00;;;13.20
68127;BMP180;54931;52.098;21.006;2022-10-17T01:58:57;101184.60;;;13.20
68127;BMP180;54931;52.098;21.006;2022-10-17T02:01:28;101187.00;;;13.20
68127;BMP180;54931;52.098;21.006;2022-10-17T02:03:57;101186.80;;;13.20
68127;BMP180;54931;52.098;21.006;2022-10-17T02:06:24;101189.00;;;13.20
68127;BMP180;54931;52.098;21.006;2022-10-17T02:08:51;101197.60;;;13.30
68127;BMP180;54931;52.098;21.006;2022-10-17T02:11:23;101193.40;;;13.36
68127;BMP180;54931;52.098;21.006;2022-10-17T02:17:07;101195.80;;;13.40
68127;BMP180;54931;52.098;21.006;2022-10-17T02:19:45;101195.60;;;13.26
68127;BMP180;54931;52.098;21.006;2022-10-17T02:30:11;101204.80;;;12.90
68127;BMP180;54931;52.098;21.006;2022-10-17T02:35:40;101212.20;;;12.70
68127;BMP180;54931;52.098;21.006;2022-10-17T02:38:09;101207.80;;;12.60
68127;BMP180;54931;52.098;21.006;2022-10-17T02:40:38;101210.60;;;12.40
68127;BMP180;54931;52.098;21.006;2022-10-17T02:43:06;101215.60;;;12.40
68127;BMP180;54931;52.098;21.006;2022-10-17T02:45:36;101225.00;;;12.40
68127;BMP180;54931;52.098;21.006;2022-10-17T02:48:21;101232.60;;;12.40
68127;BMP180;54931;52.098;21.006;2022-10-17T02:56:18;101244.20;;;12.54
68127;BMP180;54931;52.098;21.006;2022-10-17T02:58:49;101243.20;;;12.40
68127;BMP180;54931;52.098;21.006;2022-10-17T03:01:18;101239.80;;;12.30
68127;BMP180;54931;52.098;21.006;2022-10-17T03:03:45;101241.80;;;12.16
68127;BMP180;54931;52.098;21.006;2022-10-17T03:06:12;101244.00;;;12.00
68127;BMP180;54931;52.098;21.006;2022-10-17T03:08:39;101247.20;;;12.00
68127;BMP180;54931;52.098;21.006;2022-10-17T03:11:06;101253.40;;;12.00
68127;BMP180;54931;52.098;21.006;2022-10-17T03:13:33;101263.40;;;12.00
68127;BMP180;54931;52.098;21.006;2022-10-17T03:16:00;101270.60;;;12.10
68127;BMP180;54931;52.098;21.006;2022-10-17T03:18:26;101274.80;;;12.10
68127;BMP180;54931;52.098;21.006;2022-10-17T03:20:53;101279.60;;;12.14
68127;BMP180;54931;52.098;21.006;2022-10-17T03:23:20;101278.20;;;12.20
68127;BMP180;54931;52.098;21.006;2022-10-17T03:25:47;101277.40;;;12.20
68127;BMP180;54931;52.098;21.006;2022-10-17T03:28:14;101283.00;;;12.30
68127;BMP180;54931;52.098;21.006;2022-10-17T03:30:40;101279.60;;;12.40
68127;BMP180;54931;52.098;21.006;2022-10-17T03:33:07;101278.60;;;12.40
68127;BMP180;54931;52.098;21.006;2022-10-17T03:35:37;101275.00;;;12.40
68127;BMP180;54931;52.098;21.006;2022-10-17T03:38:05;101270.80;;;12.40
68127;BMP180;54931;52.098;21.006;2022-10-17T03:40:32;101272.60;;;12.30
68127;BMP180;54931;52.098;21.006;2022-10-17T03:42:58;101269.20;;;12.30
68127;BMP180;54931;52.098;21.006;2022-10-17T03:45:25;101270.60;;;12.30
68127;BMP180;54931;52.098;21.006;2022-10-17T03:47:52;101270.00;;;12.40
68127;BMP180;54931;52.098;21.006;2022-10-17T03:50:19;101274.40;;;12.40
68127;BMP180;54931;52.098;21.006;2022-10-17T03:52:47;101276.40;;;12.50
68127;BMP180;54931;52.098;21.006;2022-10-17T03:55:14;101275.60;;;12.54
68127;BMP180;54931;52.098;21.006;2022-10-17T03:57:41;101271.60;;;12.60
68127;BMP180;54931;52.098;21.006;2022-10-17T04:00:09;101274.00;;;12.50
68127;BMP180;54931;52.098;21.006;2022-10-17T04:02:36;101264.00;;;12.40
68127;BMP180;54931;52.098;21.006;2022-10-17T04:05:03;101267.60;;;12.40
68127;BMP180;54931;52.098;21.006;2022-10-17T04:07:30;101279.00;;;12.40
68127;BMP180;54931;52.098;21.006;2022-10-17T04:09:57;101283.40;;;12.50
68127;BMP180;54931;52.098;21.006;2022-10-17T04:12:24;101285.20;;;12.54
68127;BMP180;54931;52.098;21.006;2022-10-17T04:14:51;101279.00;;;12.50
68127;BMP180;54931;52.098;21.006;2022-10-17T04:17:18;101276.00;;;12.50
68127;BMP180;54931;52.098;21.006;2022-10-17T04:19:44;101278.60;;;12.40
68127;BMP180;54931;52.098;21.006;2022-10-17T04:22:11;101279.20;;;12.40
68127;BMP180;54931;52.098;21.006;2022-10-17T04:24:38;101285.00;;;12.42
68127;BMP180;54931;52.098;21.006;2022-10-17T04:27:05;101290.40;;;12.50
68127;BMP180;54931;52.098;21.006;2022-10-17T04:29:32;101295.00;;;12.50
68127;BMP180;54931;52.098;21.006;2022-10-17T04:31:59;101301.40;;;12.50
68127;BMP180;54931;52.098;21.006;2022-10-17T04:34:25;101306.20;;;12.40
68127;BMP180;54931;52.098;21.006;2022-10-17T04:36:52;101310.20;;;12.30
68127;BMP180;54931;52.098;21.006;2022-10-17T04:39:19;101316.00;;;12.30
68127;BMP180;54931;52.098;21.006;2022-10-17T04:41:46;101316.80;;;12.20
68127;BMP180;54931;52.098;21.006;2022-10-17T04:44:13;101315.60;;;12.20
68127;BMP180;54931;52.098;21.006;2022-10-17T04:46:40;101307.60;;;12.18
68127;BMP180;54931;52.098;21.006;2022-10-17T04:49:07;101304.80;;;12.00
68127;BMP180;54931;52.098;21.006;2022-10-17T04:51:34;101304.60;;;11.90
68127;BMP180;54931;52.098;21.006;2022-10-17T04:54:01;101304.00;;;11.90
68127;BMP180;54931;52.098;21.006;2022-10-17T04:56:28;101299.80;;;11.90
68127;BMP180;54931;52.098;21.006;2022-10-17T04:58:55;101305.60;;;11.90
68127;BMP180;54931;52.098;21.006;2022-10-17T05:01:22;101305.00;;;11.90
68127;BMP180;54931;52.098;21.006;2022-10-17T05:03:49;101307.40;;;11.84
68127;BMP180;54931;52.098;21.006;2022-10-17T05:06:21;101313.60;;;11.80
68127;BMP180;54931;52.098;21.006;2022-10-17T05:08:48;101313.40;;;11.80
68127;BMP180;54931;52.098;21.006;2022-10-17T05:11:21;101316.40;;;11.80
68127;BMP180;54931;52.098;21.006;2022-10-17T05:13:55;101319.20;;;11.80
68127;BMP180;54931;52.098;21.006;2022-10-17T05:16:23;101318.60;;;11.88
68127;BMP180;54931;52.098;21.006;2022-10-17T05:18:54;101320.80;;;11.90
68127;BMP180;54931;52.098;21.006;2022-10-17T05:21:23;101331.80;;;11.90
68127;BMP180;54931;52.098;21.006;2022-10-17T05:23:50;101339.40;;;11.90
68127;BMP180;54931;52.098;21.006;2022-10-17T05:26:18;101344.20;;;12.00
68127;BMP180;54931;52.098;21.006;2022-10-17T05:28:46;101352.60;;;12.00
68127;BMP180;54931;52.098;21.006;2022-10-17T05:31:14;101350.60;;;12.00
68127;BMP180;54931;52.098;21.006;2022-10-17T05:33:41;101345.60;;;12.00
68127;BMP180;54931;52.098;21.006;2022-10-17T05:36:08;101343.80;;;12.00
68127;BMP180;54931;52.098;21.006;2022-10-17T05:38:35;101345.00;;;12.00
68127;BMP180;54931;52.098;21.006;2022-10-17T05:41:04;101348.80;;;12.00
68127;BMP180;54931;52.098;21.006;2022-10-17T05:43:32;101350.60;;;12.00
68127;BMP180;54931;52.098;21.006;2022-10-17T05:46:04;101358.80;;;12.10
68127;BMP180;54931;52.098;21.006;2022-10-17T05:48:32;101363.00;;;12.20
68127;BMP180;54931;52.098;21.006;2022-10-17T05:51:04;101374.40;;;12.30
68127;BMP180;54931;52.098;21.006;2022-10-17T05:53:33;101383.20;;;12.46
68127;BMP180;54931;52.098;21.006;2022-10-17T05:56:02;101391.40;;;12.60
68127;BMP180;54931;52.098;21.006;2022-10-17T05:58:30;101394.00;;;12.80
68127;BMP180;54931;52.098;21.006;2022-10-17T06:00:59;101392.20;;;12.90
68127;BMP180;54931;52.098;21.006;2022-10-17T06:03:27;101395.80;;;13.00
68127;BMP180;54931;52.098;21.006;2022-10-17T06:05:54;101390.00;;;13.08
68127;BMP180;54931;52.098;21.006;2022-10-17T06:08:22;101385.40;;;13.10
68127;BMP180;54931;52.098;21.006;2022-10-17T06:10:49;101387.40;;;13.00
68127;BMP180;54931;52.098;21.006;2022-10-17T06:13:16;101389.60;;;13.00
68127;BMP180;54931;52.098;21.006;2022-10-17T06:15:43;101389.20;;;13.10
68127;BMP180;54931;52.098;21.006;2022-10-17T06:18:11;101386.80;;;13.30
68127;BMP180;54931;52.098;21.006;2022-10-17T06:20:37;101391.40;;;13.42
68127;BMP180;54931;52.098;21.006;2022-10-17T06:23:05;101398.00;;;13.50
68127;BMP180;54931;52.098;21.006;2022-10-17T06:25:32;101402.20;;;13.60
68127;BMP180;54931;52.098;21.006;2022-10-17T06:28:00;101411.80;;;13.80
68127;BMP180;54931;52.098;21.006;2022-10-17T06:30:27;101423.00;;;14.12
68127;BMP180;54931;52.098;21.006;2022-10-17T06:32:54;101423.60;;;14.50
68127;BMP180;54931;52.098;21.006;2022-10-17T06:35:21;101423.20;;;14.90
68127;BMP180;54931;52.098;21.006;2022-10-17T06:37:48;101428.80;;;15.20
68127;BMP180;54931;52.098;21.006;2022-10-17T06:40:14;101428.00;;;15.30
68127;BMP180;54931;52.098;21.006;2022-10-17T06:42:42;101430.80;;;15.20
68127;BMP180;54931;52.098;21.006;2022-10-17T06:45:10;101430.40;;;15.00
68127;BMP180;54931;52.098;21.006;2022-10-17T06:47:36;101425.40;;;15.04
68127;BMP180;54931;52.098;21.006;2022-10-17T06:50:04;101425.40;;;15.10
68127;BMP180;54931;52.098;21.006;2022-10-17T06:52:30;101427.20;;;15.12
68127;BMP180;54931;52.098;21.006;2022-10-17T06:54:57;101433.40;;;15.40
68127;BMP180;54931;52.098;21.006;2022-10-17T06:57:24;101444.40;;;15.54
68127;BMP180;54931;52.098;21.006;2022-10-17T06:59:51;101443.40;;;15.80
68127;BMP180;54931;52.098;21.006;2022-10-17T07:02:20;101449.80;;;16.02
68127;BMP180;54931;52.098;21.006;2022-10-17T07:04:49;101446.80;;;16.30
68127;BMP180;54931;52.098;21.006;2022-10-17T07:07:16;101446.20;;;16.58
68127;BMP180;54931;52.098;21.006;2022-10-17T07:09:43;101443.80;;;16.84
68127;BMP180;54931;52.098;21.006;2022-10-17T07:12:10;101438.00;;;17.18
68127;BMP180;54931;52.098;21.006;2022-10-17T07:14:38;101431.00;;;17.40
68127;BMP180;54931;52.098;21.006;2022-10-17T07:17:05;101431.00;;;17.44
68127;BMP180;54931;52.098;21.006;2022-10-17T07:19:32;101437.60;;;17.50
68127;BMP180;54931;52.098;21.006;2022-10-17T07:21:59;101437.60;;;17.72
68127;BMP180;54931;52.098;21.006;2022-10-17T07:24:26;101445.40;;;18.00
68127;BMP180;54931;52.098;21.006;2022-10-17T07:26:53;101448.20;;;18.24
68127;BMP180;54931;52.098;21.006;2022-10-17T07:29:20;101449.60;;;18.52
68127;BMP180;54931;52.098;21.006;2022-10-17T07:31:47;101452.40;;;18.70
68127;BMP180;54931;52.098;21.006;2022-10-17T07:34:15;101454.40;;;18.80
68127;BMP180;54931;52.098;21.006;2022-10-17T07:36:42;101458.20;;;19.10
68127;BMP180;54931;52.098;21.006;2022-10-17T07:39:09;101458.00;;;19.32
68127;BMP180;54931;52.098;21.006;2022-10-17T07:41:36;101448.60;;;19.50
68127;BMP180;54931;52.098;21.006;2022-10-17T07:44:03;101444.80;;;19.82
68127;BMP180;54931;52.098;21.006;2022-10-17T07:46:31;101443.60;;;19.76
68127;BMP180;54931;52.098;21.006;2022-10-17T07:48:58;101447.20;;;19.78
68127;BMP180;54931;52.098;21.006;2022-10-17T07:51:25;101454.20;;;19.86
68127;BMP180;54931;52.098;21.006;2022-10-17T07:53:53;101457.40;;;19.90
68127;BMP180;54931;52.098;21.006;2022-10-17T07:56:20;101464.20;;;19.90
68127;BMP180;54931;52.098;21.006;2022-10-17T07:58:51;101474.00;;;20.00
68127;BMP180;54931;52.098;21.006;2022-10-17T08:01:18;101478.20;;;20.00
68127;BMP180;54931;52.098;21.006;2022-10-17T08:03:46;101475.00;;;19.90
68127;BMP180;54931;52.098;21.006;2022-10-17T08:06:14;101480.00;;;19.82
68127;BMP180;54931;52.098;21.006;2022-10-17T08:08:41;101483.60;;;20.12
68127;BMP180;54931;52.098;21.006;2022-10-17T08:11:11;101491.80;;;20.52
68127;BMP180;54931;52.098;21.006;2022-10-17T08:13:40;101493.20;;;20.80
68127;BMP180;54931;52.098;21.006;2022-10-17T08:16:09;101489.00;;;20.74
68127;BMP180;54931;52.098;21.006;2022-10-17T08:18:38;101495.20;;;20.70
68127;BMP180;54931;52.098;21.006;2022-10-17T08:21:06;101498.80;;;20.84
68127;BMP180;54931;52.098;21.006;2022-10-17T08:23:34;101499.20;;;21.00
68127;BMP180;54931;52.098;21.006;2022-10-17T08:26:04;101499.20;;;21.20
68127;BMP180;54931;52.098;21.006;2022-10-17T08:28:34;101497.40;;;21.20
68127;BMP180;54931;52.098;21.006;2022-10-17T08:31:06;101500.20;;;21.34
68127;BMP180;54931;52.098;21.006;2022-10-17T08:33:33;101496.40;;;21.66
68127;BMP180;54931;52.098;21.006;2022-10-17T08:36:01;101501.60;;;21.80
68127;BMP180;54931;52.098;21.006;2022-10-17T08:38:29;101501.60;;;21.70
68127;BMP180;54931;52.098;21.006;2022-10-17T08:41:00;101502.20;;;21.50
68127;BMP180;54931;52.098;21.006;2022-10-17T08:43:50;101502.60;;;21.20
68127;BMP180;54931;52.098;21.006;2022-10-17T08:46:21;101499.20;;;20.64
68127;BMP180;54931;52.098;21.006;2022-10-17T08:48:50;101497.40;;;20.34
68127;BMP180;54931;52.098;21.006;2022-10-17T08:51:24;101494.00;;;20.52
68127;BMP180;54931;52.098;21.006;2022-10-17T08:54:13;101493.00;;;20.80
68127;BMP180;54931;52.098;21.006;2022-10-17T08:56:44;101482.40;;;21.00
68127;BMP180;54931;52.098;21.006;2022-10-17T08:59:16;101485.40;;;21.00
68127;BMP180;54931;52.098;21.006;2022-10-17T09:01:56;101487.20;;;21.20
68127;BMP180;54931;52.098;21.006;2022-10-17T09:04:39;101488.00;;;21.50
68127;BMP180;54931;52.098;21.006;2022-10-17T09:10:14;101491.20;;;22.18
68127;BMP180;54931;52.098;21.006;2022-10-17T09:12:54;101491.20;;;22.60
68127;BMP180;54931;52.098;21.006;2022-10-17T09:18:16;101485.20;;;23.10
68127;BMP180;54931;52.098;21.006;2022-10-17T09:20:58;101478.80;;;23.24
68127;BMP180;54931;52.098;21.006;2022-10-17T09:23:32;101482.00;;;23.40
68127;BMP180;54931;52.098;21.006;2022-10-17T09:26:02;101487.80;;;23.30
68127;BMP180;54931;52.098;21.006;2022-10-17T09:28:33;101488.80;;;23.30
68127;BMP180;54931;52.098;21.006;2022-10-17T09:31:04;101490.20;;;23.30
68127;BMP180;54931;52.098;21.006;2022-10-17T09:33:39;101490.00;;;23.30
68127;BMP180;54931;52.098;21.006;2022-10-17T09:36:20;101486.60;;;23.10
68127;BMP180;54931;52.098;21.006;2022-10-17T09:39:03;101489.00;;;22.90
68127;BMP180;54931;52.098;21.006;2022-10-17T09:44:17;101484.00;;;23.10
68127;BMP180;54931;52.098;21.006;2022-10-17T09:47:10;101484.40;;;23.10
68127;BMP180;54931;52.098;21.006;2022-10-17T09:49:42;101479.80;;;22.86
68127;BMP180;54931;52.098;21.006;2022-10-17T09:52:16;101482.40;;;22.48
68127;BMP180;54931;52.098;21.006;2022-10-17T09:57:13;101480.40;;;22.16
68127;BMP180;54931;52.098;21.006;2022-10-17T09:59:44;101479.20;;;22.12
68127;BMP180;54931;52.098;21.006;2022-10-17T10:04:59;101473.20;;;22.50
68127;BMP180;54931;52.098;21.006;2022-10-17T10:07:29;101473.80;;;22.60
68127;BMP180;54931;52.098;21.006;2022-10-17T10:09:57;101472.00;;;22.70
68127;BMP180;54931;52.098;21.006;2022-10-17T10:12:32;101471.00;;;22.60
68127;BMP180;54931;52.098;21.006;2022-10-17T10:14:59;101466.40;;;22.30
68127;BMP180;54931;52.098;21.006;2022-10-17T10:17:39;101465.80;;;22.10
68127;BMP180;54931;52.098;21.006;2022-10-17T10:20:30;101460.40;;;22.10
68127;BMP180;54931;52.098;21.006;2022-10-17T10:23:05;101461.80;;;22.30
68127;BMP180;54931;52.098;21.006;2022-10-17T10:25:34;101469.20;;;22.32
68127;BMP180;54931;52.098;21.006;2022-10-17T10:28:02;101469.20;;;22.30
68127;BMP180;54931;52.098;21.006;2022-10-17T10:30:35;101472.80;;;22.50
68127;BMP180;54931;52.098;21.006;2022-10-17T10:33:02;101468.60;;;22.76
68127;BMP180;54931;52.098;21.006;2022-10-17T10:35:34;101464.60;;;23.02
68127;BMP180;54931;52.098;21.006;2022-10-17T10:38:12;101464.80;;;23.00
68127;BMP180;54931;52.098;21.006;2022-10-17T10:40:52;101466.80;;;22.62
68127;BMP180;54931;52.098;21.006;2022-10-17T10:45:56;101465.00;;;21.90
68127;BMP180;54931;52.098;21.006;2022-10-17T10:48:26;101460.60;;;21.90
68127;BMP180;54931;52.098;21.006;2022-10-17T10:53:36;101456.80;;;22.06
68127;BMP180;54931;52.098;21.006;2022-10-17T11:01:45;101453.20;;;22.02
68127;BMP180;54931;52.098;21.006;2022-10-17T11:12:33;101452.00;;;22.10
68127;BMP180;54931;52.098;21.006;2022-10-17T11:15:19;101450.60;;;22.10
68127;BMP180;54931;52.098;21.006;2022-10-17T11:25:37;101450.60;;;22.10
68127;BMP180;54931;52.098;21.006;2022-10-17T11:28:17;101451.80;;;22.26
68127;BMP180;54931;52.098;21.006;2022-10-17T11:33:19;101456.20;;;22.50
68127;BMP180;54931;52.098;21.006;2022-10-17T11:35:49;101450.40;;;22.60
68127;BMP180;54931;52.098;21.006;2022-10-17T11:41:08;101449.80;;;22.66
68127;BMP180;54931;52.098;21.006;2022-10-17T11:43:47;101446.20;;;22.68
68127;BMP180;54931;52.098;21.006;2022-10-17T11:51:21;101445.20;;;22.40
68127;BMP180;54931;52.098;21.006;2022-10-17T11:54:01;101444.20;;;22.30
68127;BMP180;54931;52.098;21.006;2022-10-17T12:01:46;101450.20;;;22.50
68127;BMP180;54931;52.098;21.006;2022-10-17T12:17:02;101454.00;;;23.02
68127;BMP180;54931;52.098;21.006;2022-10-17T12:19:36;101453.20;;;22.80
68127;BMP180;54931;52.098;21.006;2022-10-17T12:22:04;101461.20;;;22.60
68127;BMP180;54931;52.098;21.006;2022-10-17T12:32:53;101453.80;;;22.20
68127;BMP180;54931;52.098;21.006;2022-10-17T12:35:23;101454.80;;;22.30
68127;BMP180;54931;52.098;21.006;2022-10-17T12:45:59;101450.00;;;22.80
68127;BMP180;54931;52.098;21.006;2022-10-17T12:51:04;101441.40;;;22.42
68127;BMP180;54931;52.098;21.006;2022-10-17T12:53:46;101438.60;;;22.12
68127;BMP180;54931;52.098;21.006;2022-10-17T12:56:19;101425.20;;;22.30
68127;BMP180;54931;52.098;21.006;2022-10-17T12:58:48;101431.60;;;22.40
68127;BMP180;54931;52.098;21.006;2022-10-17T13:01:27;101427.80;;;22.40
68127;BMP180;54931;52.098;21.006;2022-10-17T13:03:56;101421.60;;;22.42
68127;BMP180;54931;52.098;21.006;2022-10-17T13:06:27;101423.20;;;22.60
68127;BMP180;54931;52.098;21.006;2022-10-17T13:09:04;101423.40;;;22.80
68127;BMP180;54931;52.098;21.006;2022-10-17T13:11:34;101425.00;;;22.98
68127;BMP180;54931;52.098;21.006;2022-10-17T13:14:04;101430.60;;;23.00
68127;BMP180;54931;52.098;21.006;2022-10-17T13:16:49;101429.20;;;23.00
68127;BMP180;54931;52.098;21.006;2022-10-17T13:19:19;101419.60;;;23.14
68127;BMP180;54931;52.098;21.006;2022-10-17T13:21:52;101419.00;;;23.30
68127;BMP180;54931;52.098;21.006;2022-10-17T13:24:30;101424.80;;;23.50
68127;BMP180;54931;52.098;21.006;2022-10-17T13:26:59;101421.20;;;23.40
68127;BMP180;54931;52.098;21.006;2022-10-17T13:29:27;101415.80;;;23.60
68127;BMP180;54931;52.098;21.006;2022-10-17T13:31:58;101413.60;;;23.60
68127;BMP180;54931;52.098;21.006;2022-10-17T13:34:30;101413.20;;;23.60
68127;BMP180;54931;52.098;21.006;2022-10-17T13:37:01;101414.00;;;23.30
68127;BMP180;54931;52.098;21.006;2022-10-17T13:39:43;101407.40;;;23.10
68127;BMP180;54931;52.098;21.006;2022-10-17T13:42:22;101407.80;;;23.00
68127;BMP180;54931;52.098;21.006;2022-10-17T13:44:50;101406.00;;;22.80
68127;BMP180;54931;52.098;21.006;2022-10-17T13:47:28;101404.40;;;22.60
68127;BMP180;54931;52.098;21.006;2022-10-17T13:49:57;101402.80;;;22.60
68127;BMP180;54931;52.098;21.006;2022-10-17T13:52:27;101398.60;;;22.50
68127;BMP180;54931;52.098;21.006;2022-10-17T13:55:06;101393.00;;;22.50
68127;BMP180;54931;52.098;21.006;2022-10-17T13:57:34;101396.00;;;22.50
68127;BMP180;54931;52.098;21.006;2022-10-17T14:00:17;101395.80;;;22.50
68127;BMP180;54931;52.098;21.006;2022-10-17T14:02:45;101394.00;;;22.40
68127;BMP180;54931;52.098;21.006;2022-10-17T14:05:17;101392.00;;;22.30
68127;BMP180;54931;52.098;21.006;2022-10-17T14:08:02;101390.80;;;22.20
68127;BMP180;54931;52.098;21.006;2022-10-17T14:10:34;101392.80;;;22.02
68127;BMP180;54931;52.098;21.006;2022-10-17T14:13:05;101395.80;;;21.90
68127;BMP180;54931;52.098;21.006;2022-10-17T14:15:36;101390.00;;;21.80
68127;BMP180;54931;52.098;21.006;2022-10-17T14:18:06;101394.60;;;21.70
68127;BMP180;54931;52.098;21.006;2022-10-17T14:20:34;101392.60;;;21.60
68127;BMP180;54931;52.098;21.006;2022-10-17T14:23:02;101387.60;;;21.50
68127;BMP180;54931;52.098;21.006;2022-10-17T14:25:38;101385.80;;;21.40
68127;BMP180;54931;52.098;21.006;2022-10-17T14:30:48;101388.80;;;21.20
68127;BMP180;54931;52.098;21.006;2022-10-17T14:33:29;101390.40;;;21.10
68127;BMP180;54931;52.098;21.006;2022-10-17T14:35:58;101385.40;;;21.00
68127;BMP180;54931;52.098;21.006;2022-10-17T14:38:27;101382.40;;;20.90
68127;BMP180;54931;52.098;21.006;2022-10-17T14:41:06;101383.80;;;20.80
68127;BMP180;54931;52.098;21.006;2022-10-17T14:43:39;101384.80;;;20.70
68127;BMP180;54931;52.098;21.006;2022-10-17T14:46:12;101382.00;;;20.66
68127;BMP180;54931;52.098;21.006;2022-10-17T14:48:41;101376.20;;;20.60
68127;BMP180;54931;52.098;21.006;2022-10-17T14:51:11;101376.80;;;20.50
68127;BMP180;54931;52.098;21.006;2022-10-17T14:53:43;101375.80;;;20.40
68127;BMP180;54931;52.098;21.006;2022-10-17T14:56:25;101373.60;;;20.30
68127;BMP180;54931;52.098;21.006;2022-10-17T14:58:53;101376.60;;;20.22
68127;BMP180;54931;52.098;21.006;2022-10-17T15:01:20;101375.60;;;20.18
68127;BMP180;54931;52.098;21.006;2022-10-17T15:03:47;101370.80;;;20.10
68127;BMP180;54931;52.098;21.006;2022-10-17T15:06:19;101375.00;;;20.00
68127;BMP180;54931;52.098;21.006;2022-10-17T15:08:46;101375.00;;;19.90
68127;BMP180;54931;52.098;21.006;2022-10-17T15:11:13;101378.20;;;19.80
68127;BMP180;54931;52.098;21.006;2022-10-17T15:13:41;101371.00;;;19.70
68127;BMP180;54931;52.098;21.006;2022-10-17T15:16:19;101368.80;;;19.60
68127;BMP180;54931;52.098;21.006;2022-10-17T15:18:48;101363.40;;;19.50
68127;BMP180;54931;52.098;21.006;2022-10-17T15:21:17;101369.20;;;19.36
68127;BMP180;54931;52.098;21.006;2022-10-17T15:23:45;101375.40;;;19.22
68127;BMP180;54931;52.098;21.006;2022-10-17T15:26:24;101371.00;;;19.10
68127;BMP180;54931;52.098;21.006;2022-10-17T15:28:52;101371.80;;;19.00
68127;BMP180;54931;52.098;21.006;2022-10-17T15:31:21;101371.20;;;18.90
68127;BMP180;54931;52.098;21.006;2022-10-17T15:33:49;101372.00;;;18.80
68127;BMP180;54931;52.098;21.006;2022-10-17T15:36:32;101371.60;;;18.70
68127;BMP180;54931;52.098;21.006;2022-10-17T15:39:00;101363.60;;;18.60
68127;BMP180;54931;52.098;21.006;2022-10-17T15:41:29;101365.40;;;18.60
68127;BMP180;54931;52.098;21.006;2022-10-17T15:43:57;101364.00;;;18.60
68127;BMP180;54931;52.098;21.006;2022-10-17T15:46:27;101363.60;;;18.50
68127;BMP180;54931;52.098;21.006;2022-10-17T15:48:55;101368.80;;;18.48
68127;BMP180;54931;52.098;21.006;2022-10-17T15:51:22;101362.20;;;18.40
68127;BMP180;54931;52.098;21.006;2022-10-17T15:53:49;101359.60;;;18.30
68127;BMP180;54931;52.098;21.006;2022-10-17T15:56:51;101360.40;;;18.30
68127;BMP180;54931;52.098;21.006;2022-10-17T15:59:25;101363.40;;;18.26
68127;BMP180;54931;52.098;21.006;2022-10-17T16:01:53;101365.00;;;18.20
68127;BMP180;54931;52.098;21.006;2022-10-17T16:04:20;101360.20;;;18.10
68127;BMP180;54931;52.098;21.006;2022-10-17T16:06:49;101354.00;;;18.04